Flight Track Log - Related Links

Times and Time Zones

All times are in EDT time to prevent confusion due to time zone crossing. See the UAL1243 flight status page for this flight to view local times or setup timezone preferences in your user account.

Time Position Orientation Groundspeed Altitude Reporting Facility
EDT Latitude Longitude Course Direction KTS MPH feet Rate Location/Type
Tue 07:03:47 PM 26.0780 -80.0660 89° East 244 281 2,300  Level FlightAware ADS-B
Tue 07:04:17 PM 26.0800 -80.0270 87° East 258 297 3,700 2,836 Climbing FlightAware ADS-B
Tue 07:04:42 PM 26.0820 -79.9940 86° East 258 297 4,900 2,073 Climbing FlightAware ADS-B
Tue 07:05:12 PM 26.1010 -79.9560 61° Northeast 277 319 5,600 2,400 Climbing FlightAware ADS-B
Tue 07:05:37 PM 26.1230 -79.9290 48° Northeast 277 319 7,100 3,382 Climbing FlightAware ADS-B
Tue 07:06:07 PM 26.1460 -79.8940 54° Northeast 279 321 8,700 2,945 Climbing FlightAware ADS-B
Tue 07:06:32 PM 26.1650 -79.8630 56° Northeast 289 333 9,800 1,800 Climbing FlightAware ADS-B
Tue 07:07:17 PM 26.2020 -79.8040 55° Northeast 339 390 10,800 1,725 Climbing FlightAware ADS-B
Tue 07:07:52 PM 26.2330 -79.7540 55° Northeast 354 407 12,100 2,259 Climbing FlightAware ADS-B
Tue 07:08:42 PM 26.2760 -79.6830 56° Northeast 361 415 14,000 2,267 Climbing FlightAware ADS-B
Tue 07:09:22 PM 26.3170 -79.6160 56° Northeast 379 436 15,500 2,143 Climbing FlightAware ADS-B
Tue 07:09:52 PM 26.3460 -79.5680 56° Northeast 387 445 16,500 2,229 Climbing FlightAware ADS-B
Tue 07:10:32 PM 26.4030 -79.5210 36° Northeast 380 437 18,100 2,188 Climbing FlightAware ADS-B
Tue 07:11:17 PM 26.4760 -79.4800 27° Northeast 398 458 19,600 1,976 Climbing FlightAware ADS-B
Tue 07:11:57 PM 26.5430 -79.4430 26° Northeast 399 459 20,900 1,875 Climbing FlightAware ADS-B
Tue 07:12:37 PM 26.6110 -79.4040 27° Northeast 415 478 22,100 1,650 Climbing FlightAware ADS-B
Tue 07:13:17 PM 26.6800 -79.3660 26° Northeast 419 482 23,100 1,624 Climbing FlightAware ADS-B
Tue 07:14:02 PM 26.7620 -79.3190 27° Northeast 432 497 24,400 1,624 Climbing FlightAware ADS-B
Tue 07:14:42 PM 26.8330 -79.2790 27° Northeast 433 498 25,400 1,482 Climbing FlightAware ADS-B
Tue 07:15:27 PM 26.9140 -79.2330 27° Northeast 447 514 26,500 1,482 Climbing FlightAware ADS-B
Tue 07:16:07 PM 26.9880 -79.1910 27° Northeast 453 521 27,500 1,341 Climbing FlightAware ADS-B
Tue 07:16:52 PM 27.0750 -79.1420 27° Northeast 454 522 28,400 1,120 Climbing FlightAware ADS-B
Tue 07:17:22 PM 27.1280 -79.1110 27° Northeast 466 536 28,900 1,275 Climbing FlightAware ADS-B
Tue 07:18:12 PM 27.2300 -79.0530 27° Northeast 470 541 30,100 1,389 Climbing FlightAware ADS-B
Tue 07:18:57 PM 27.3170 -79.0030 27° Northeast 469 540 31,100 1,412 Climbing FlightAware ADS-B
Tue 07:19:37 PM 27.3980 -78.9590 26° Northeast 460 529 32,100 1,482 Climbing FlightAware ADS-B
Tue 07:20:22 PM 27.4900 -78.9370 12° North 439 505 33,200 1,412 Climbing FlightAware ADS-B
Tue 07:21:02 PM 27.5690 -78.9260 North 441 507 34,100 1,389 Climbing FlightAware ADS-B
Tue 07:21:57 PM 27.6750 -78.9110 North 424 488 35,400 1,200 Climbing FlightAware ADS-B
Tue 07:22:42 PM 27.7690 -78.8980 North 423 487 36,100 525 Climbing FlightAware ADS-B
Tue 07:23:17 PM 27.8300 -78.8890 North 423 487 36,100 675 Level FlightAware ADS-B
Tue 07:24:02 PM 27.9310 -78.8750 North 434 499 37,000 600 Climbing FlightAware ADS-B
Tue 07:24:47 PM 28.0210 -78.8620 North 435 501 37,000  Level FlightAware ADS-B
Tue 07:25:27 PM 28.0960 -78.8520 North 435 501 37,000  Level FlightAware ADS-B
Tue 07:26:07 PM 28.1810 -78.8400 North 436 502 37,000  Level FlightAware ADS-B
Tue 07:26:52 PM 28.2620 -78.8280 North 436 502 37,000  Level FlightAware ADS-B
Tue 07:27:27 PM 28.3250 -78.8190 North 436 502 37,000  Level FlightAware ADS-B
Tue 07:28:12 PM 28.4180 -78.8060 North 437 503 37,000  Level FlightAware ADS-B
Tue 07:28:52 PM 28.4860 -78.7970 North 437 503 37,000  Level FlightAware ADS-B
Tue 07:29:32 PM 28.5550 -78.7870 North 437 503 37,000  Level FlightAware ADS-B
Tue 07:30:22 PM 28.6400 -78.7750 North 437 503 37,000  Level FlightAware ADS-B
Tue 07:31:02 PM 28.7080 -78.7660 North 437 503 37,000  Level FlightAware ADS-B
Tue 07:31:42 PM 28.7760 -78.7560 North 437 503 37,000  Level FlightAware ADS-B
Tue 07:32:22 PM 28.8450 -78.7460 North 437 503 37,000  Level FlightAware ADS-B
Tue 07:33:02 PM 28.9130 -78.7370 North 437 503 37,000  Level FlightAware ADS-B
Tue 07:33:52 PM 28.9980 -78.7250 North 437 503 37,000  Level FlightAware ADS-B
Tue 07:34:32 PM 29.0660 -78.7150 North 437 503 37,000  Level FlightAware ADS-B
Tue 07:35:12 PM 29.1350 -78.7060 North 437 503 37,000  Level FlightAware ADS-B
Tue 07:35:52 PM 29.2030 -78.6960 North 437 503 37,000  Level FlightAware ADS-B
Tue 07:36:32 PM 29.2710 -78.6870 North 437 503 37,000  Level FlightAware ADS-B
Tue 07:37:22 PM 29.3560 -78.6750 North 437 503 37,000  Level FlightAware ADS-B
Tue 07:37:55 PM 29.6150 -78.6333 North 435 501 37,000  Level Jacksonville Center
Tue 07:38:55 PM 29.7292 -78.6117 North 433 498 37,000 -50 Level Jacksonville Center
Tue 07:39:55 PM 29.8561 -78.5967 North 426 490 36,900  Descending Jacksonville Center
Tue 07:40:55 PM 29.9767 -78.5817 North 431 496 37,000 50 Climbing Jacksonville Center
Tue 07:41:55 PM 30.1014 -78.5664 North 431 496 37,000  Level Jacksonville Center
Tue 07:42:55 PM 30.2133 -78.5494 North 431 496 37,000  Level Jacksonville Center
Tue 07:43:55 PM 30.3381 -78.5317 North 431 496 37,000  Level Jacksonville Center
Tue 07:44:55 PM 30.4647 -78.5164 North 433 498 37,000  Level Jacksonville Center
Tue 07:45:55 PM 30.5853 -78.4964 North 439 505 37,000  Level Jacksonville Center
Tue 07:46:55 PM 30.7014 -78.4764 North 439 505 37,000  Level Jacksonville Center
Tue 07:47:55 PM 30.8217 -78.4539 North 433 498 37,000  Level Jacksonville Center
Tue 07:48:55 PM 30.9464 -78.4361 North 442 509 37,000 -50 Level Jacksonville Center
Tue 07:49:55 PM 31.0564 -78.4186 North 440 506 36,900  Descending Jacksonville Center
Tue 07:50:55 PM 31.1789 -78.3983 North 440 506 37,000  Climbing Jacksonville Center
Tue 07:51:55 PM 31.2992 -78.3778 North 439 505 36,900  Descending Jacksonville Center
Tue 07:52:55 PM 31.4194 -78.3575 North 439 505 37,000 50 Climbing Jacksonville Center
Tue 07:53:55 PM 31.5400 -78.3394 North 444 511 37,000  Level Jacksonville Center
Tue 07:54:55 PM 31.6622 -78.3189 North 444 511 37,000 -50 Level Jacksonville Center
Tue 07:55:55 PM 31.7889 -78.2953 North 444 511 36,900  Descending Jacksonville Center
Tue 07:56:55 PM 31.9031 -78.2800 North 439 505 37,000 50 Climbing Jacksonville Center
Tue 07:57:55 PM 32.0233 -78.2567 North 439 505 37,000  Level Jacksonville Center
Tue 07:58:55 PM 32.1433 -78.2336 North 439 505 37,000 -50 Level Jacksonville Center
Tue 07:59:55 PM 32.2639 -78.2128 North 439 505 36,900  Descending Jacksonville Center
Tue 08:00:55 PM 32.3819 -78.1942 North 434 499 37,000 50 Climbing Jacksonville Center
Tue 08:01:55 PM 32.5006 -78.1808 North 429 494 37,000  Level Jacksonville Center
Tue 08:02:55 PM 32.6186 -78.1597 North 424 488 37,000  Level Jacksonville Center
Tue 08:03:55 PM 32.7367 -78.1364 North 424 488 37,000  Level Jacksonville Center
Tue 08:04:55 PM 32.8550 -78.1203 North 424 488 37,000  Level Jacksonville Center
Tue 08:05:55 PM 32.9756 -78.1039 North 424 488 37,000  Level Jacksonville Center
Tue 08:06:55 PM 33.0936 -78.0828 North 424 488 37,000  Level Jacksonville Center
Tue 08:07:55 PM 33.2119 -78.0639 North 424 488 37,000  Level Jacksonville Center
Tue 08:08:55 PM 33.3303 -78.0450 North 424 488 37,000  Level Jacksonville Center
Tue 08:09:34 PM 33.4169 -78.0297 North 424 488 37,000  Level Washington Center
Tue 08:10:34 PM 33.5236 -78.0128 North 430 495 37,000 -50 Level Washington Center
Tue 08:11:34 PM 33.6428 -77.9939 North 430 495 36,900  Descending Washington Center
Tue 08:12:34 PM 33.7600 -77.9747 North 430 495 37,000 50 Climbing Washington Center
Tue 08:13:34 PM 33.8772 -77.9556 North 424 488 37,000  Level Washington Center
Tue 08:14:34 PM 34.0050 -77.9292 10° North 437 503 37,000  Level Washington Center
Tue 08:15:34 PM 34.1222 -77.9150 North 442 509 37,000  Level Washington Center
Tue 08:16:34 PM 34.2417 -77.8906 10° North 437 503 37,000  Level Washington Center
Tue 08:17:34 PM 34.3753 -77.8767 North 437 503 37,000  Level Washington Center
Tue 08:18:34 PM 34.4964 -77.8750 North 431 496 37,000  Level Washington Center
Tue 08:19:34 PM 34.6194 -77.8761 360° North 426 490 37,000  Level Washington Center
Tue 08:20:34 PM 34.7386 -77.8717 North 426 490 37,000  Level Washington Center
Tue 08:21:34 PM 34.8428 -77.8669 North 421 484 37,000  Level Washington Center
Tue 08:22:34 PM 34.9639 -77.8653 North 421 484 37,000  Level Washington Center
Tue 08:23:34 PM 35.0828 -77.8636 North 421 484 37,000  Level Washington Center
Tue 08:24:34 PM 35.2039 -77.8619 North 421 484 37,000  Level Washington Center
Tue 08:29:52 PM 35.8450 -77.8530 North 423 487 37,000  Level FlightAware ADS-B
Tue 08:30:37 PM 35.9370 -77.8520 North 423 487 37,000  Level FlightAware ADS-B
Tue 08:31:02 PM 35.9840 -77.8510 North 424 488 37,000  Level FlightAware ADS-B
Tue 08:31:47 PM 36.0680 -77.8500 North 425 489 37,000  Level FlightAware ADS-B
Tue 08:32:27 PM 36.1540 -77.8490 North 426 490 37,000  Level FlightAware ADS-B
Tue 08:33:07 PM 36.2310 -77.8470 North 427 491 37,000  Level FlightAware ADS-B
Tue 08:33:52 PM 36.3150 -77.8460 North 428 493 37,000  Level FlightAware ADS-B
Tue 08:34:27 PM 36.3920 -77.8450 North 429 494 37,000  Level FlightAware ADS-B
Tue 08:35:17 PM 36.4900 -77.8440 360° North 430 495 37,000  Level FlightAware ADS-B
Tue 08:35:47 PM 36.5440 -77.8430 North 430 495 37,000  Level FlightAware ADS-B
Tue 08:36:37 PM 36.6490 -77.8190 10° North 444 511 37,000  Level FlightAware ADS-B
Tue 08:37:17 PM 36.7140 -77.7880 21° North 444 511 37,000  Level FlightAware ADS-B
Tue 08:38:02 PM 36.8050 -77.7390 23° Northeast 446 513 37,000  Level FlightAware ADS-B
Tue 08:38:42 PM 36.8760 -77.7030 22° Northeast 439 505 37,000  Level FlightAware ADS-B
Tue 08:39:27 PM 36.9540 -77.6630 22° Northeast 439 505 37,000  Level FlightAware ADS-B
Tue 08:39:57 PM 37.0020 -77.6390 22° Northeast 439 505 37,000  Level FlightAware ADS-B
Tue 08:40:37 PM 37.0660 -77.6070 22° Northeast 439 505 37,000  Level FlightAware ADS-B
Tue 08:41:17 PM 37.1710 -77.5510 23° Northeast 440 506 37,000  Level FlightAware ADS-B
Tue 08:42:02 PM 37.2620 -77.5040 22° Northeast 439 505 37,000  Level FlightAware ADS-B
Tue 08:42:57 PM 37.3680 -77.4500 22° Northeast 447 514 37,000  Level FlightAware ADS-B
Tue 08:43:52 PM 37.4740 -77.3950 22° Northeast 447 514 37,000  Level FlightAware ADS-B
Tue 08:44:37 PM 37.5610 -77.3500 22° Northeast 446 513 37,000  Level FlightAware ADS-B
Tue 08:45:17 PM 37.6380 -77.3100 22° Northeast 445 512 37,000  Level FlightAware ADS-B
Tue 08:46:02 PM 37.7210 -77.2660 23° Northeast 445 512 37,000  Level FlightAware ADS-B
Tue 08:46:19 PM 37.7609 -77.2454 22° Northeast 443 510 37,000  Level FlightAware ADS-B
Tue 08:46:52 PM 37.8249 -77.2119 22° Northeast 443 510 37,000  Level FlightAware ADS-B
Tue 08:47:32 PM 37.8820 -77.1820 22° Northeast 435 501 37,000  Level FlightAware ADS-B
Tue 08:47:47 PM 37.9288 -77.1577 22° Northeast 443 510 37,000  Level FlightAware ADS-B
Tue 08:48:17 PM 37.9710 -77.1360 22° Northeast 435 501 37,000  Level FlightAware ADS-B
Tue 08:48:39 PM 38.0259 -77.1067 23° Northeast 443 510 37,000  Level FlightAware ADS-B
Tue 08:49:11 PM 38.0862 -77.0749 23° Northeast 446 513 37,000  Level FlightAware ADS-B
Tue 08:49:42 PM 38.1400 -77.0460 23° Northeast 449 517 37,000  Level FlightAware ADS-B
Tue 08:49:49 PM 38.1592 -77.0362 22° Northeast 447 514 37,000  Level FlightAware ADS-B
Tue 08:50:51 PM 38.2781 -76.9731 23° Northeast 450 518 37,000  Level FlightAware ADS-B
Tue 08:51:23 PM 38.3390 -76.9407 23° Northeast 450 518 37,000  Level FlightAware ADS-B
Tue 08:51:53 PM 38.3974 -76.9097 23° Northeast 450 518 37,000  Level FlightAware ADS-B
Tue 08:52:24 PM 38.4581 -76.8774 23° Northeast 451 519 37,000  Level FlightAware ADS-B
Tue 08:52:55 PM 38.5174 -76.8459 23° Northeast 451 519 37,000  Level FlightAware ADS-B
Tue 08:53:26 PM 38.5754 -76.8150 23° Northeast 451 519 37,000  Level FlightAware ADS-B
Tue 08:53:57 PM 38.6350 -76.7830 23° Northeast 450 518 37,000  Level FlightAware ADS-B
Tue 08:54:18 PM 38.6751 -76.7605 24° Northeast 454 522 37,000  Level FlightAware ADS-B
Tue 08:54:30 PM 38.6987 -76.7438 29° Northeast 458 527 37,000  Level FlightAware ADS-B
Tue 08:54:45 PM 38.7241 -76.7218 34° Northeast 462 532 37,000  Level FlightAware ADS-B
Tue 08:55:16 PM 38.7748 -76.6656 41° Northeast 465 535 37,000  Level FlightAware ADS-B
Tue 08:55:47 PM 38.8235 -76.6094 42° Northeast 463 533 37,000  Level FlightAware ADS-B
Tue 08:56:17 PM 38.8712 -76.5544 42° Northeast 462 532 37,000 -295 Level FlightAware ADS-B
Tue 08:56:48 PM 38.9205 -76.4974 42° Northeast 460 529 36,700 -1,452 Descending FlightAware ADS-B
Tue 08:57:19 PM 38.9688 -76.4412 42° Northeast 454 522 35,500 -2,476 Descending FlightAware ADS-B
Tue 08:57:51 PM 39.0184 -76.3837 42° Northeast 455 524 34,100 -2,762 Descending FlightAware ADS-B
Tue 08:58:22 PM 39.0672 -76.3269 42° Northeast 459 528 32,600 -2,903 Descending FlightAware ADS-B
Tue 08:58:53 PM 39.1161 -76.2698 42° Northeast 462 532 31,100 -3,000 Descending FlightAware ADS-B
Tue 08:59:24 PM 39.1651 -76.2126 42° Northeast 462 532 29,500 -2,852 Descending FlightAware ADS-B
Tue 08:59:54 PM 39.2123 -76.1573 42° Northeast 457 526 28,200 -2,361 Descending FlightAware ADS-B
Tue 09:00:25 PM 39.2600 -76.1014 42° Northeast 450 518 27,100 -1,180 Descending FlightAware ADS-B
Tue 09:00:55 PM 39.3066 -76.0469 42° Northeast 453 521 27,000 -100 Descending FlightAware ADS-B
Tue 09:01:25 PM 39.3536 -75.9917 42° Northeast 457 526 27,000  Level FlightAware ADS-B
Tue 09:01:58 PM 39.4049 -75.9313 42° Northeast 458 527 27,000  Level FlightAware ADS-B
Tue 09:02:29 PM 39.4535 -75.8739 42° Northeast 459 528 27,000 -787 Level FlightAware ADS-B
Tue 09:02:59 PM 39.4999 -75.8189 42° Northeast 452 520 26,200 -1,967 Descending FlightAware ADS-B
Tue 09:03:30 PM 39.5481 -75.7615 43° Northeast 445 512 25,000 -2,286 Descending FlightAware ADS-B
Tue 09:04:02 PM 39.5961 -75.7045 42° Northeast 436 502 23,800 -2,190 Descending FlightAware ADS-B
Tue 09:04:33 PM 39.6418 -75.6502 42° Northeast 430 495 22,700 -2,164 Descending FlightAware ADS-B
Tue 09:05:03 PM 39.6856 -75.5979 43° Northeast 423 487 21,600 -2,164 Descending FlightAware ADS-B
Tue 09:05:34 PM 39.7283 -75.5467 43° Northeast 416 479 20,500 -2,032 Descending FlightAware ADS-B
Tue 09:06:05 PM 39.7719 -75.4942 43° Northeast 409 471 19,500 -1,967 Descending FlightAware ADS-B
Tue 09:06:35 PM 39.8132 -75.4444 43° Northeast 405 466 18,500 -2,100 Descending FlightAware ADS-B
Tue 09:07:05 PM 39.8538 -75.3951 43° Northeast 398 458 17,400 -2,164 Descending FlightAware ADS-B
Tue 09:07:36 PM 39.8949 -75.3454 43° Northeast 391 450 16,300 -2,262 Descending FlightAware ADS-B
Tue 09:08:06 PM 39.9348 -75.2969 43° Northeast 387 445 15,100 -2,200 Descending FlightAware ADS-B
Tue 09:08:36 PM 39.9738 -75.2495 43° Northeast 382 440 14,100 -2,000 Descending FlightAware ADS-B
Tue 09:09:06 PM 40.0123 -75.2027 43° Northeast 378 435 13,100 -2,066 Descending FlightAware ADS-B
Tue 09:09:37 PM 40.0513 -75.1552 43° Northeast 372 428 12,000 -2,032 Descending FlightAware ADS-B
Tue 09:10:08 PM 40.0910 -75.1069 43° Northeast 366 421 11,000 -1,258 Descending FlightAware ADS-B
Tue 09:10:39 PM 40.1275 -75.0622 43° Northeast 340 391 10,700 -1,017 Descending FlightAware ADS-B
Tue 09:11:07 PM 40.1584 -75.0242 43° Northeast 336 387 10,000 -1,091 Descending FlightAware ADS-B
Tue 09:11:23 PM 40.1763 -75.0022 43° Northeast 322 371 9,900 -563 Descending FlightAware ADS-B
Tue 09:11:39 PM 40.1937 -74.9808 43° Northeast 310 357 9,700 -938 Descending FlightAware ADS-B
Tue 09:11:55 PM 40.2099 -74.9610 43° Northeast 307 353 9,400 -1,355 Descending FlightAware ADS-B
Tue 09:12:10 PM 40.2259 -74.9416 43° Northeast 306 352 9,000 -1,548 Descending FlightAware ADS-B
Tue 09:12:26 PM 40.2418 -74.9223 43° Northeast 304 350 8,600 -1,556 Descending FlightAware ADS-B
Tue 09:12:37 PM 40.2530 -74.9083 44° Northeast 304 350 8,300 -1,385 Descending FlightAware ADS-B
Tue 09:12:52 PM 40.2673 -74.8884 47° Northeast 304 350 8,000 -1,000 Descending FlightAware ADS-B
Tue 09:13:07 PM 40.2824 -74.8670 47° Northeast 297 342 7,800 -387 Descending FlightAware ADS-B
Tue 09:13:23 PM 40.2964 -74.8473 47° Northeast 291 335 7,800  Level FlightAware ADS-B
Tue 09:13:39 PM 40.3108 -74.8270 47° Northeast 289 333 7,800 -545 Level FlightAware ADS-B
Tue 09:13:56 PM 40.3267 -74.8047 47° Northeast 289 333 7,500 -909 Descending FlightAware ADS-B
Tue 09:14:12 PM 40.3409 -74.7847 47° Northeast 288 331 7,300 -968 Descending FlightAware ADS-B
Tue 09:14:27 PM 40.3548 -74.7651 47° Northeast 287 330 7,000 -1,034 Descending FlightAware ADS-B
Tue 09:14:41 PM 40.3673 -74.7476 47° Northeast 287 330 6,800 -1,034 Descending FlightAware ADS-B
Tue 09:14:56 PM 40.3811 -74.7283 47° Northeast 286 329 6,500 -1,125 Descending FlightAware ADS-B
Tue 09:15:13 PM 40.3967 -74.7063 47° Northeast 284 327 6,200 -909 Descending FlightAware ADS-B
Tue 09:15:29 PM 40.4107 -74.6867 47° Northeast 282 325 6,000 -857 Descending FlightAware ADS-B
Tue 09:15:34 PM 40.4155 -74.6811 42° Northeast 281 323 5,900 -1,091 Descending FlightAware ADS-B
Tue 09:15:40 PM 40.4223 -74.6749 35° Northeast 276 318 5,800 -500 Descending FlightAware ADS-B
Tue 09:15:46 PM 40.4285 -74.6705 28° Northeast 274 315 5,800  Level FlightAware ADS-B
Tue 09:15:52 PM 40.4362 -74.6665 22° Northeast 270 311 5,800  Level FlightAware ADS-B
Tue 09:15:55 PM 40.4398 -74.6652 15° North 269 310 5,800  Level FlightAware ADS-B
Tue 09:16:11 PM 40.4584 -74.6600 12° North 266 306 5,800  Level FlightAware ADS-B
Tue 09:16:28 PM 40.4796 -74.6543 12° North 265 305 5,800  Level FlightAware ADS-B
Tue 09:16:44 PM 40.4987 -74.6492 11° North 267 307 5,800  Level FlightAware ADS-B
Tue 09:17:01 PM 40.5186 -74.6438 12° North 268 308 5,800  Level FlightAware ADS-B
Tue 09:17:16 PM 40.5371 -74.6389 11° North 268 308 5,800  Level FlightAware ADS-B
Tue 09:18:01 PM 40.5915 -74.6243 12° North 268 308 5,800  Level FlightAware ADS-B
Tue 09:18:16 PM 40.6103 -74.6193 11° North 268 308 5,800  Level FlightAware ADS-B
Tue 09:18:32 PM 40.6294 -74.6140 12° North 267 307 5,800  Level FlightAware ADS-B
Tue 09:18:37 PM 40.6353 -74.6115 18° North 270 311 5,800 -545 Level FlightAware ADS-B
Tue 09:18:43 PM 40.6429 -74.6073 23° Northeast 272 313 5,700 -960 Descending FlightAware ADS-B
Tue 09:19:02 PM 40.6648 -74.5944 24° Northeast 273 314 5,400 -1,029 Descending FlightAware ADS-B
Tue 09:19:18 PM 40.6835 -74.5839 23° Northeast 277 319 5,100 -1,091 Descending FlightAware ADS-B
Tue 09:19:35 PM 40.7029 -74.5735 22° Northeast 281 323 4,800 -545 Descending FlightAware ADS-B
Tue 09:19:51 PM 40.7232 -74.5628 22° Northeast 279 321 4,800  Level FlightAware ADS-B
Tue 09:20:08 PM 40.7435 -74.5519 22° Northeast 278 320 4,800  Level FlightAware ADS-B
Tue 09:20:56 PM 40.7993 -74.5219 22° Northeast 276 318 4,800  Level FlightAware ADS-B
Tue 09:21:41 PM 40.8490 -74.4950 22° Northeast 278 320 4,800  Level FlightAware ADS-B
Tue 09:21:56 PM 40.8670 -74.4830 27° Northeast 283 326 4,800  Level FlightAware ADS-B
Tue 09:22:11 PM 40.8800 -74.4620 51° Northeast 289 333 4,800  Level FlightAware ADS-B
Tue 09:22:26 PM 40.8880 -74.4370 67° East 288 331 4,800  Level FlightAware ADS-B
Tue 09:22:35 PM 40.8934 -74.4188 69° East 288 331 4,800  Level FlightAware ADS-B
Tue 09:23:16 PM 40.9100 -74.3590 70° East 288 331 4,800 -250 Level FlightAware ADS-B
Tue 09:23:47 PM 40.9200 -74.3070 76° East 288 331 4,500 -706 Descending FlightAware ADS-B
Tue 09:24:07 PM 40.9250 -74.2710 80° East 283 326 4,200 -700 Descending FlightAware ADS-B
Tue 09:24:47 PM 40.9170 -74.2030 99° East 274 315 3,800 -348 Descending FlightAware ADS-B
Tue 09:25:16 PM 40.8973 -74.1573 120° Southeast 263 303 3,800 -333 Level FlightAware ADS-B
Tue 09:25:59 PM 40.8716 -74.1061 124° Southeast 253 291 3,400 -638 Descending FlightAware ADS-B
Tue 09:26:03 PM 40.8683 -74.1033 147° Southeast 212 244 3,300 -667 Descending FlightAware ADS-B
Tue 09:26:08 PM 40.8640 -74.1005 154° Southeast 205 236 3,300 -600 Level FlightAware ADS-B
Tue 09:26:13 PM 40.8596 -74.0987 163° South 200 230 3,200 -1,500 Descending FlightAware ADS-B
Tue 09:26:16 PM 40.8568 -74.0978 166° South 198 228 3,100 -1,333 Descending FlightAware ADS-B
Tue 09:26:31 PM 40.8435 -74.0941 168° South 196 226 2,800 -968 Descending FlightAware ADS-B
Tue 09:26:47 PM 40.8299 -74.0903 168° South 185 213 2,600 -1,000 Descending FlightAware ADS-B
Tue 09:26:55 PM 40.8226 -74.0886 170° South 179 206 2,400 -1,000 Descending FlightAware ADS-B
Tue 09:26:59 PM 40.8195 -74.0883 176° South 173 199 2,400  Level FlightAware ADS-B
Tue 09:27:03 PM 40.8167 -74.0886 185° South 167 192 2,400 -750 Level FlightAware ADS-B
Tue 09:27:07 PM 40.8138 -74.0895 193° South 163 188 2,300 -828 Descending FlightAware ADS-B
Tue 09:27:32 PM 40.7968 -74.0983 201° Southwest 163 188 2,000 -828 Descending FlightAware ADS-B
Tue 09:27:36 PM 40.7942 -74.0999 205° Southwest 153 176 1,900 -947 Descending FlightAware ADS-B
Tue 09:27:51 PM 40.7842 -74.1060 205° Southwest 150 173 1,700 -632 Descending FlightAware ADS-B
Tue 09:27:55 PM 40.7818 -74.1077 208° Southwest 149 171 1,700 -600 Level FlightAware ADS-B
Tue 09:28:01 PM 40.7783 -74.1100 206° Southwest 148 170 1,600 -783 Descending FlightAware ADS-B
Tue 09:28:18 PM 40.7681 -74.1165 206° Southwest 137 158 1,400 -833 Descending FlightAware ADS-B
Tue 09:28:37 PM 40.7579 -74.1230 206° Southwest 134 154 1,100 -923 Descending FlightAware ADS-B
Tue 09:28:44 PM 40.7539 -74.1256 206° Southwest 137 158 1,000 -720 Descending FlightAware ADS-B
Tue 09:29:02 PM 40.7436 -74.1321 206° Southwest 139 160 800 -727 Descending FlightAware ADS-B
Tue 09:29:17 PM 40.7344 -74.1379 206° Southwest 137 158 600 -800 Descending FlightAware ADS-B
Tue 09:29:32 PM 40.7261 -74.1434 207° Southwest 139 160 400 -800 Descending FlightAware ADS-B

Login

Don't have an account? Register now (free) for customized features, flight alerts, and more!